Pleasant Hill, CA

11:58 PM PDT on September 18, 2014 (GMT -0700)
Pleasant Hill | Change Station
CLOSE
Current Station
Personal Weather Station
Location: Pleasant Hill, CA
Elevation: 85 ft
Nearby Weather Stations

Elev 85 ft 37.94 °N, 122.08 °W | Updated 9 seconds ago

Clear
Clear
61.9 °F
Feels Like 61.9 °F
N
0.0
Wind Variable Wind from SE
Gusts 0.0 mph

Today
High -- | Low -- °F
--% Chance of Precip.
Yesterday
High -- | Low -- °F
Precip. -- in
6:52 AM 7:11 PM
Waning Crescent, 21% visible
Pressure 29.86 in
Visibility 10.0 miles
Clouds Clear
Dew Point 55 °F
Humidity 79%
Rainfall 0.00 in
Snow Depth 0 in , 1 in , 0 in
UV 0 out of 12
Pollen 5.10 out of 12
PM2.5 Good
Flu Activity Not available.
METAR KCCR 190553Z 22004KT 10SM CLR 19/16 A2989 RMK AO2 SLP109 T01890156 10256 20189 51015

More Conditions Fewer Conditions

Pressure 29.86 in
Visibility 10.0 miles
Clouds Clear
Dew Point 55 °F
Humidity 79%
Rainfall 0.00 in
Snow Depth 0 in , 1 in , 0 in
UV 0 out of 12
Pollen 5.10 out of 12
PM2.5 Good
Flu Activity Not available.
METAR KCCR 190553Z 22004KT 10SM CLR 19/16 A2989 RMK AO2 SLP109 T01890156 10256 20189 51015

More Conditions Fewer Conditions

10-Day Weather Forecast

Almanac

Astronomy

Sep. 18, 2014 Rise Set
Actual Time 6:52 AM PDT 7:11 PM PDT
Civil Twilight 6:26 AM PDT 7:37 PM PDT
Nautical Twilight 5:55 AM PDT 8:08 PM PDT
Astronomical Twilight 5:24 AM PDT 8:39 PM PDT
Moon 1:53 AM PDT (9/18) 4:02 PM PDT (9/18)
Length of Visible Light 13h 11m
Length of Day
12h 18m
Tomorrow will be 2m 26s shorter.
Waning Crescent, 21% of the Moon is Illuminated
Sep 19
Waning Crescent
Sep 24
New
Oct 1
First Quarter
Oct 8
Full
Oct 15
Last Quarter

Community

WunderPhotos

Upload Photos

1,754,575 photos uploaded!

Nearby

Air Quality

  Air Quality AQ Index Pollutant
Yesterday Good
OZONE
Yesterday Good
PM2.5
Current Good
PM2.5
Thursday Good
OZONE
Friday Good
OZONE
Saturday Moderate
PM2.5
Sunday Moderate
PM2.5
Monday Good
OZONE
Tuesday Good
OZONE

Snow Depth

Station Depth Elevation
Rubicon #2 0 in 7500 ft
Echo Peak 1 in 7800 ft
Hagan's Meadow 0 in 8000 ft
Leavitt Meadows 0 in 7200 ft
Monitor Pass 0 in 8350 ft

Earthquake Activity

City Distance Mag. Time & Date
The Geysers, California 65 miles 2.5 11:29 PM PDT
2014-09-17
Cobb, California 67 miles 2.7 1:23 PM PDT
2014-09-16
Minimum magnitude displayed is 2.5.

Coastal Water Temperatures

Place Temperature
San Francisco, CA 64.9 °F
Richmond, CA 66.9 °F
Port Chicago, CA 71.1 °F

Nearby Weather Stations